Airfield :
LOGIN :

Register | Disclaimer

   EN    FR    IT 

 










Legend :    VFR   Marginal VFR   IFR   Intensive IFR   Very Intensive IFR
Visi :
Ceiling :
>= 8 km
>= 3000ft
5 to 8 km
1000 to 3000 ft
1500m to 5 km
500 to 1000 ft
800 to 1500m
200 to 500 ft
< 800m
< 200 ft
Symbols :   Thunderstorms  Fog  Heavy snow  Heavy precipitations  Wind > 20 kt
SIGMETs :     Misc.  Thunderstorms  Icing  Turbulence  Mountain Waves  Volcanic Ashes






- Airport Elevation : 26 ft
- IATA code : BIA


LFKB - Bastia

CURRENT METAR :
  • 280400Z AUTO 23004KT CAVOK 15/13 Q1015 NOSIG

EXPIRED METARs :
  • 280330Z AUTO 21004KT CAVOK 15/13 Q1015 NOSIG
  • 280300Z AUTO 20006KT 9999 FEW100 16/13 Q1015 NOSIG
  • 280230Z AUTO 20004KT CAVOK 15/13 Q1015 NOSIG
  • 280200Z AUTO 22003KT CAVOK 16/13 Q1016 NOSIG
  • 280130Z AUTO 22003KT 9999 FEW044 16/14 Q1016 NOSIG
  • 280100Z AUTO 21003KT CAVOK 16/14 Q1016 NOSIG
  • 280030Z AUTO 21003KT CAVOK 16/15 Q1016 NOSIG
  • 280000Z AUTO 26002KT 9999 FEW100 17/15 Q1016 NOSIG
  • 272330Z AUTO VRB03KT 9999 SCT100 BKN130 BKN230 17/15 Q1016 NOSIG

TAF TAF LFKB
Valid from the 28 at 03:00 until the 29 at 03:00 UTC


280200Z 2803/2903 24004KT CAVOK TX24/2812Z TN16/2804Z
BECMG 2808/2810 14010KT BKN020
ATIS : +33 4 95 59 19 40



MET'MAP, your aeronautical weather chart ! - Copyright ORBIFLY December 2007 - Disclaimer

ORBIFLY MET'MAP TEAM :

Programming & Development : Alexandra Zaïnal
Original concept : Baudouin d'Aumeries
Technical & hardware support : Manuel Goepfert
Assistance : Marc-Olivier Méhu




SOURCES & CREDITS :

   NOAA